Time,TemperatureF,DewpointF,PressureIn,WindDirection,WindDirectionDegrees,WindSpeedMPH,WindSpeedGustMPH,Humidity,HourlyPrecipIn,Conditions,Clouds,dailyrainin,SoftwareType,DateUTC
2013-12-24 00:00:00,43.6,43.6,30.48,NNE,19,3.0,4.0,100,0.00,,,0.04,Wunderground v.1.15,2013-12-24 08:00:00,
2013-12-24 00:05:00,43.4,43.4,30.48,NNE,19,3.0,4.0,100,0.00,,,0.00,Wunderground v.1.15,2013-12-24 08:05:00,
2013-12-24 00:11:00,43.3,43.3,30.49,NNE,19,3.0,3.0,100,0.00,,,0.00,Wunderground v.1.15,2013-12-24 08:11:00,
2013-12-24 00:17:00,43.3,43.3,30.49,NNE,19,3.0,3.0,100,0.00,,,0.00,Wunderground v.1.15,2013-12-24 08:17:00,
2013-12-24 00:23:00,43.2,43.2,30.49,NNE,19,3.0,3.0,100,0.00,,,0.00,Wunderground v.1.15,2013-12-24 08:23:00,
2013-12-24 00:28:00,43.2,43.2,30.49,NNE,19,2.0,3.0,100,0.00,,,0.00,Wunderground v.1.15,2013-12-24 08:28:00,
2013-12-24 00:33:00,43.5,43.5,30.48,NNE,19,2.0,2.0,100,0.00,,,0.00,Wunderground v.1.15,2013-12-24 08:33:00,
2013-12-24 00:39:00,43.6,43.6,30.48,NNE,19,2.0,2.0,100,0.00,,,0.00,Wunderground v.1.15,2013-12-24 08:39:00,
2013-12-24 00:45:00,43.6,43.6,30.48,NNE,19,1.0,2.0,100,0.00,,,0.00,Wunderground v.1.15,2013-12-24 08:45:00,
2013-12-24 00:50:00,43.6,43.6,30.48,NNE,19,1.0,4.0,100,0.00,,,0.00,Wunderground v.1.15,2013-12-24 08:50:00,
2013-12-24 00:56:00,43.4,43.4,30.48,NNE,19,3.0,5.0,100,0.00,,,0.00,Wunderground v.1.15,2013-12-24 08:56:00,
2013-12-24 01:02:00,43.3,43.3,30.48,NNE,19,3.0,6.0,100,0.00,,,0.00,Wunderground v.1.15,2013-12-24 09:02:00,
2013-12-24 01:08:00,43.0,43.0,30.48,NNE,23,3.0,6.0,100,0.00,,,0.00,Wunderground v.1.15,2013-12-24 09:08:00,
2013-12-24 01:14:00,42.9,42.9,30.49,NNE,23,3.0,6.0,100,0.00,,,0.00,Wunderground v.1.15,2013-12-24 09:14:00,
2013-12-24 01:20:00,42.5,42.5,30.49,NNE,23,2.0,2.0,100,0.00,,,0.00,Wunderground v.1.15,2013-12-24 09:20:00,
2013-12-24 01:26:00,42.6,42.6,30.49,NNE,23,2.0,6.0,100,0.00,,,0.00,Wunderground v.1.15,2013-12-24 09:26:00,
2013-12-24 01:32:00,42.6,42.6,30.49,NNE,23,2.0,6.0,100,0.00,,,0.00,Wunderground v.1.15,2013-12-24 09:32:00,
2013-12-24 01:38:00,42.7,42.7,30.49,NNE,23,1.0,6.0,100,0.00,,,0.00,Wunderground v.1.15,2013-12-24 09:38:00,
2013-12-24 01:44:00,42.9,42.9,30.49,NNE,23,2.0,6.0,100,0.00,,,0.00,Wunderground v.1.15,2013-12-24 09:44:00,
2013-12-24 01:50:00,42.9,42.9,30.49,NNE,23,1.0,6.0,100,0.00,,,0.00,Wunderground v.1.15,2013-12-24 09:50:00,
2013-12-24 01:55:00,42.8,42.8,30.49,NNE,23,1.0,6.0,100,0.00,,,0.00,Wunderground v.1.15,2013-12-24 09:55:00,
2013-12-24 02:01:00,42.7,42.7,30.50,NNE,23,2.0,6.0,100,0.00,,,0.00,Wunderground v.1.15,2013-12-24 10:01:00,
2013-12-24 02:07:00,42.4,42.4,30.50,NNE,23,2.0,6.0,100,0.00,,,0.00,Wunderground v.1.15,2013-12-24 10:07:00,
2013-12-24 02:13:00,42.0,42.0,30.50,NNE,23,3.0,6.0,100,0.00,,,0.00,Wunderground v.1.15,2013-12-24 10:13:00,
2013-12-24 02:19:00,41.7,41.7,30.50,NNE,23,4.0,6.0,100,0.00,,,0.00,Wunderground v.1.15,2013-12-24 10:19:00,
2013-12-24 02:25:00,41.6,41.6,30.50,NNE,24,4.0,6.0,100,0.00,,,0.00,Wunderground v.1.15,2013-12-24 10:25:00,
2013-12-24 02:31:00,41.2,41.2,30.50,NNE,24,4.0,6.0,100,0.00,,,0.00,Wunderground v.1.15,2013-12-24 10:31:00,
2013-12-24 02:36:00,41.1,41.1,30.50,NNE,24,3.0,6.0,100,0.00,,,0.00,Wunderground v.1.15,2013-12-24 10:36:00,
2013-12-24 02:42:00,41.0,41.0,30.50,NNE,24,3.0,6.0,100,0.00,,,0.00,Wunderground v.1.15,2013-12-24 10:42:00,
2013-12-24 02:48:00,40.9,40.9,30.50,NNE,24,2.0,6.0,100,0.00,,,0.00,Wunderground v.1.15,2013-12-24 10:48:00,
2013-12-24 02:54:00,40.8,40.8,30.51,NNE,24,2.0,6.0,100,0.00,,,0.00,Wunderground v.1.15,2013-12-24 10:54:00,
2013-12-24 03:00:00,40.7,40.7,30.51,NNE,24,3.0,6.0,100,0.00,,,0.00,Wunderground v.1.15,2013-12-24 11:00:00,
2013-12-24 03:06:00,40.8,40.8,30.51,NNE,24,4.0,6.0,100,0.00,,,0.00,Wunderground v.1.15,2013-12-24 11:06:00,
2013-12-24 03:12:00,40.7,40.7,30.50,NNE,24,3.0,6.0,100,0.00,,,0.00,Wunderground v.1.15,2013-12-24 11:12:00,
2013-12-24 03:17:00,40.7,40.7,30.50,NNE,24,3.0,6.0,100,0.00,,,0.00,Wunderground v.1.15,2013-12-24 11:17:00,
2013-12-24 03:23:00,40.7,40.7,30.50,NNE,24,3.0,6.0,100,0.00,,,0.00,Wunderground v.1.15,2013-12-24 11:23:00,
2013-12-24 03:29:00,40.7,40.7,30.50,NNE,24,3.0,6.0,100,0.00,,,0.00,Wunderground v.1.15,2013-12-24 11:29:00,
2013-12-24 03:35:00,40.7,40.7,30.50,NNE,24,4.0,6.0,100,0.00,,,0.01,Wunderground v.1.15,2013-12-24 11:35:00,
2013-12-24 03:41:00,40.5,40.5,30.50,NNE,24,4.0,6.0,100,0.00,,,0.01,Wunderground v.1.15,2013-12-24 11:41:00,
2013-12-24 03:47:00,40.4,40.4,30.50,NNE,24,3.0,6.0,100,0.00,,,0.01,Wunderground v.1.15,2013-12-24 11:47:00,
2013-12-24 03:52:00,40.4,40.4,30.50,NNE,24,3.0,6.0,100,0.00,,,0.01,Wunderground v.1.15,2013-12-24 11:52:00,
2013-12-24 03:58:00,40.4,40.4,30.50,NNE,24,3.0,6.0,100,0.00,,,0.01,Wunderground v.1.15,2013-12-24 11:58:00,
2013-12-24 04:05:00,40.5,40.5,30.49,NNE,24,3.0,6.0,100,0.00,,,0.01,Wunderground v.1.15,2013-12-24 12:05:00,
2013-12-24 04:11:00,40.5,40.5,30.50,NNE,24,3.0,6.0,100,0.00,,,0.01,Wunderground v.1.15,2013-12-24 12:11:00,
2013-12-24 04:17:00,40.5,40.5,30.50,NNE,24,2.0,6.0,100,0.00,,,0.01,Wunderground v.1.15,2013-12-24 12:17:00,
2013-12-24 04:22:00,40.5,40.5,30.49,NNE,24,2.0,6.0,100,0.00,,,0.01,Wunderground v.1.15,2013-12-24 12:22:00,
2013-12-24 04:28:00,40.2,40.2,30.50,NNE,24,3.0,6.0,100,0.00,,,0.01,Wunderground v.1.15,2013-12-24 12:28:00,
2013-12-24 04:34:00,39.6,39.3,30.50,NNE,24,2.0,6.0,99,0.00,,,0.01,Wunderground v.1.15,2013-12-24 12:34:00,
2013-12-24 04:40:00,39.0,38.7,30.50,NNE,24,2.0,6.0,99,0.00,,,0.01,Wunderground v.1.15,2013-12-24 12:40:00,
2013-12-24 04:46:00,39.0,39.0,30.50,NNE,24,3.0,6.0,100,0.00,,,0.01,Wunderground v.1.15,2013-12-24 12:46:00,
2013-12-24 04:52:00,39.1,39.1,30.49,NNE,24,3.0,6.0,100,0.00,,,0.01,Wunderground v.1.15,2013-12-24 12:52:00,
2013-12-24 04:57:00,39.1,39.1,30.50,NNE,24,3.0,6.0,100,0.00,,,0.01,Wunderground v.1.15,2013-12-24 12:57:00,
2013-12-24 05:03:00,39.1,39.1,30.50,NNE,24,3.0,6.0,100,0.00,,,0.01,Wunderground v.1.15,2013-12-24 13:03:00,
2013-12-24 05:09:00,38.9,38.9,30.50,NNE,24,4.0,6.0,100,0.00,,,0.01,Wunderground v.1.15,2013-12-24 13:09:00,
2013-12-24 05:14:00,38.6,38.6,30.50,NNE,24,4.0,6.0,100,0.00,,,0.01,Wunderground v.1.15,2013-12-24 13:14:00,
2013-12-24 05:20:00,38.5,38.5,30.50,NNE,24,3.0,3.0,100,0.00,,,0.01,Wunderground v.1.15,2013-12-24 13:20:00,
2013-12-24 05:26:00,38.6,38.6,30.50,NNE,24,2.0,6.0,100,0.00,,,0.01,Wunderground v.1.15,2013-12-24 13:26:00,
2013-12-24 05:32:00,38.7,38.7,30.50,NNE,24,2.0,6.0,100,0.00,,,0.01,Wunderground v.1.15,2013-12-24 13:32:00,
2013-12-24 05:38:00,38.7,38.7,30.49,NNE,24,2.0,6.0,100,0.00,,,0.01,Wunderground v.1.15,2013-12-24 13:38:00,
2013-12-24 05:44:00,38.6,38.6,30.50,NNE,24,2.0,6.0,100,0.00,,,0.01,Wunderground v.1.15,2013-12-24 13:44:00,
2013-12-24 05:50:00,38.6,38.6,30.50,NNE,24,2.0,2.0,100,0.00,,,0.01,Wunderground v.1.15,2013-12-24 13:50:00,
2013-12-24 05:55:00,38.7,38.7,30.50,NNE,24,2.0,6.0,100,0.00,,,0.01,Wunderground v.1.15,2013-12-24 13:55:00,
2013-12-24 06:01:00,38.7,38.7,30.49,NNE,24,2.0,6.0,100,0.00,,,0.01,Wunderground v.1.15,2013-12-24 14:01:00,
2013-12-24 06:07:00,38.6,38.6,30.49,NNE,24,3.0,6.0,100,0.00,,,0.01,Wunderground v.1.15,2013-12-24 14:07:00,
2013-12-24 06:13:00,38.5,38.5,30.49,NNE,24,2.0,6.0,100,0.00,,,0.01,Wunderground v.1.15,2013-12-24 14:13:00,
2013-12-24 06:18:00,38.7,38.7,30.49,NNE,24,2.0,6.0,100,0.00,,,0.01,Wunderground v.1.15,2013-12-24 14:18:00,
2013-12-24 06:24:00,39.0,39.0,30.49,NNE,24,3.0,6.0,100,0.00,,,0.01,Wunderground v.1.15,2013-12-24 14:24:00,
2013-12-24 06:30:00,39.1,39.1,30.49,NNE,24,3.0,6.0,100,0.00,,,0.01,Wunderground v.1.15,2013-12-24 14:30:00,
2013-12-24 06:36:00,39.3,39.3,30.49,NNE,24,3.0,6.0,100,0.00,,,0.01,Wunderground v.1.15,2013-12-24 14:36:00,
2013-12-24 06:41:00,39.3,39.3,30.49,NNE,24,3.0,6.0,100,0.00,,,0.01,Wunderground v.1.15,2013-12-24 14:41:00,
2013-12-24 06:47:00,39.4,39.4,30.49,NNE,24,3.0,6.0,100,0.00,,,0.01,Wunderground v.1.15,2013-12-24 14:47:00,
2013-12-24 06:53:00,39.1,39.1,30.48,NNE,24,3.0,6.0,100,0.00,,,0.01,Wunderground v.1.15,2013-12-24 14:53:00,
2013-12-24 06:59:00,39.0,39.0,30.48,NNE,24,3.0,6.0,100,0.00,,,0.01,Wunderground v.1.15,2013-12-24 14:59:00,
2013-12-24 07:05:00,39.1,39.1,30.48,NNE,24,2.0,6.0,100,0.00,,,0.01,Wunderground v.1.15,2013-12-24 15:05:00,
2013-12-24 07:11:00,39.2,39.2,30.48,NNE,24,2.0,6.0,100,0.00,,,0.01,Wunderground v.1.15,2013-12-24 15:11:00,
2013-12-24 07:17:00,39.3,39.3,30.48,NNE,24,2.0,6.0,100,0.00,,,0.01,Wunderground v.1.15,2013-12-24 15:17:00,
2013-12-24 07:23:00,39.4,39.4,30.48,NNE,24,2.0,6.0,100,0.00,,,0.01,Wunderground v.1.15,2013-12-24 15:23:00,
2013-12-24 07:29:00,39.3,39.3,30.48,NNE,24,2.0,6.0,100,0.00,,,0.01,Wunderground v.1.15,2013-12-24 15:29:00,
2013-12-24 07:34:00,39.6,39.6,30.47,NNE,24,3.0,6.0,100,0.00,,,0.01,Wunderground v.1.15,2013-12-24 15:34:00,
2013-12-24 07:39:00,39.9,39.9,30.47,NNE,24,3.0,6.0,100,0.00,,,0.01,Wunderground v.1.15,2013-12-24 15:39:00,
2013-12-24 07:45:00,40.2,40.2,30.47,NNE,24,3.0,6.0,100,0.00,,,0.01,Wunderground v.1.15,2013-12-24 15:45:00,
2013-12-24 07:51:00,40.2,40.2,30.47,NNE,24,3.0,6.0,100,0.00,,,0.01,Wunderground v.1.15,2013-12-24 15:51:00,
2013-12-24 07:57:00,40.0,40.0,30.47,NNE,24,3.0,6.0,100,0.00,,,0.01,Wunderground v.1.15,2013-12-24 15:57:00,
2013-12-24 08:03:00,39.6,39.6,30.47,NNE,24,3.0,6.0,100,0.00,,,0.01,Wunderground v.1.15,2013-12-24 16:03:00,
2013-12-24 08:08:00,39.3,39.3,30.47,NNE,24,2.0,6.0,100,0.00,,,0.01,Wunderground v.1.15,2013-12-24 16:08:00,
2013-12-24 08:13:00,39.2,39.2,30.47,NNE,24,3.0,6.0,100,0.00,,,0.01,Wunderground v.1.15,2013-12-24 16:13:00,
2013-12-24 08:19:00,39.5,39.5,30.47,NNE,24,3.0,7.0,100,0.00,,,0.01,Wunderground v.1.15,2013-12-24 16:19:00,
2013-12-24 08:25:00,39.6,39.6,30.47,NNE,24,3.0,6.0,100,0.00,,,0.01,Wunderground v.1.15,2013-12-24 16:25:00,
2013-12-24 08:31:00,39.8,39.8,30.47,NNE,24,3.0,6.0,100,0.00,,,0.01,Wunderground v.1.15,2013-12-24 16:31:00,
2013-12-24 08:37:00,39.8,39.8,30.47,NNE,24,2.0,6.0,100,0.00,,,0.01,Wunderground v.1.15,2013-12-24 16:37:00,
2013-12-24 08:42:00,39.5,39.5,30.47,NNE,24,2.0,6.0,100,0.00,,,0.01,Wunderground v.1.15,2013-12-24 16:42:00,
2013-12-24 08:48:00,39.1,39.1,30.47,NNE,24,2.0,6.0,100,0.00,,,0.01,Wunderground v.1.15,2013-12-24 16:48:00,
2013-12-24 08:53:00,39.1,39.1,30.47,NNE,24,2.0,6.0,100,0.00,,,0.01,Wunderground v.1.15,2013-12-24 16:53:00,
2013-12-24 08:59:00,39.3,39.3,30.47,NNE,24,3.0,6.0,100,0.00,,,0.01,Wunderground v.1.15,2013-12-24 16:59:00,
2013-12-24 09:05:00,39.4,39.4,30.47,NNE,24,4.0,6.0,100,0.00,,,0.01,Wunderground v.1.15,2013-12-24 17:05:00,
2013-12-24 09:11:00,39.3,39.3,30.47,NNE,24,3.0,6.0,100,0.00,,,0.01,Wunderground v.1.15,2013-12-24 17:11:00,
2013-12-24 09:17:00,39.5,39.5,30.47,NNE,24,2.0,6.0,100,0.00,,,0.01,Wunderground v.1.15,2013-12-24 17:17:00,
2013-12-24 09:22:00,39.8,39.8,30.47,NNE,24,2.0,6.0,100,0.00,,,0.01,Wunderground v.1.15,2013-12-24 17:22:00,
2013-12-24 09:28:00,40.1,40.1,30.47,NNE,24,2.0,6.0,100,0.00,,,0.01,Wunderground v.1.15,2013-12-24 17:28:00,
2013-12-24 09:34:00,40.4,40.4,30.47,NNE,24,2.0,6.0,100,0.00,,,0.01,Wunderground v.1.15,2013-12-24 17:34:00,
2013-12-24 09:39:00,40.8,40.8,30.47,NNE,24,2.0,6.0,100,0.00,,,0.01,Wunderground v.1.15,2013-12-24 17:39:00,
2013-12-24 09:45:00,41.1,41.1,30.47,NNE,24,1.0,6.0,100,0.00,,,0.01,Wunderground v.1.15,2013-12-24 17:45:00,
2013-12-24 09:51:00,41.3,41.3,30.47,NNE,24,2.0,6.0,100,0.00,,,0.01,Wunderground v.1.15,2013-12-24 17:51:00,
2013-12-24 09:57:00,41.5,41.5,30.47,NNE,24,3.0,6.0,100,0.00,,,0.01,Wunderground v.1.15,2013-12-24 17:57:00,
2013-12-24 10:02:00,41.8,41.8,30.47,NNE,24,4.0,6.0,100,0.00,,,0.01,Wunderground v.1.15,2013-12-24 18:02:00,
2013-12-24 10:08:00,42.3,42.3,30.47,NNE,24,4.0,6.0,100,0.00,,,0.01,Wunderground v.1.15,2013-12-24 18:08:00,
2013-12-24 10:13:00,42.6,42.6,30.47,NNE,24,4.0,6.0,100,0.00,,,0.01,Wunderground v.1.15,2013-12-24 18:13:00,
2013-12-24 10:19:00,43.1,43.1,30.47,NNE,24,4.0,6.0,100,0.00,,,0.01,Wunderground v.1.15,2013-12-24 18:19:00,
2013-12-24 10:25:00,43.4,43.4,30.46,NNE,30,4.0,6.0,100,0.00,,,0.01,Wunderground v.1.15,2013-12-24 18:25:00,
2013-12-24 10:31:00,43.8,43.8,30.46,NE,56,5.0,9.0,100,0.00,,,0.01,Wunderground v.1.15,2013-12-24 18:31:00,
2013-12-24 10:37:00,44.0,44.0,30.46,ENE,61,6.0,9.0,100,0.00,,,0.01,Wunderground v.1.15,2013-12-24 18:37:00,
2013-12-24 10:43:00,44.3,44.3,30.45,NE,47,5.0,6.0,100,0.00,,,0.01,Wunderground v.1.15,2013-12-24 18:43:00,
2013-12-24 10:49:00,44.4,44.4,30.45,NE,38,4.0,6.0,100,0.00,,,0.01,Wunderground v.1.15,2013-12-24 18:49:00,
2013-12-24 10:54:00,44.4,44.1,30.45,NE,47,4.0,8.0,99,0.00,,,0.01,Wunderground v.1.15,2013-12-24 18:54:00,
2013-12-24 11:00:00,44.4,44.1,30.45,NNE,31,4.0,6.0,99,0.00,,,0.01,Wunderground v.1.15,2013-12-24 19:00:00,
2013-12-24 11:06:00,44.6,44.3,30.45,NE,39,4.0,6.0,99,0.00,,,0.01,Wunderground v.1.15,2013-12-24 19:06:00,
2013-12-24 11:12:00,44.8,44.5,30.45,NE,34,3.0,6.0,99,0.00,,,0.01,Wunderground v.1.15,2013-12-24 19:12:00,
2013-12-24 11:18:00,44.9,44.6,30.44,North,360,3.0,6.0,99,0.00,,,0.01,Wunderground v.1.15,2013-12-24 19:18:00,
2013-12-24 11:24:00,44.8,44.5,30.44,North,355,4.0,9.0,99,0.00,,,0.01,Wunderground v.1.15,2013-12-24 19:24:00,
2013-12-24 11:29:00,44.7,44.2,30.44,North,349,6.0,10.0,98,0.00,,,0.01,Wunderground v.1.15,2013-12-24 19:29:00,
2013-12-24 11:35:00,44.6,44.1,30.44,North,355,8.0,12.0,98,0.00,,,0.01,Wunderground v.1.15,2013-12-24 19:35:00,
2013-12-24 11:41:00,44.8,44.5,30.44,North,5,8.0,13.0,99,0.00,,,0.01,Wunderground v.1.15,2013-12-24 19:41:00,
2013-12-24 11:47:00,44.8,44.3,30.43,North,360,9.0,13.0,98,0.00,,,0.01,Wunderground v.1.15,2013-12-24 19:47:00,
2013-12-24 11:53:00,45.0,44.5,30.43,North,5,8.0,9.0,98,0.00,,,0.01,Wunderground v.1.15,2013-12-24 19:53:00,
2013-12-24 11:59:00,45.1,44.6,30.43,North,355,6.0,9.0,98,0.00,,,0.01,Wunderground v.1.15,2013-12-24 19:59:00,
2013-12-24 12:05:00,45.3,44.8,30.43,North,5,7.0,13.0,98,0.00,,,0.01,Wunderground v.1.15,2013-12-24 20:05:00,
2013-12-24 12:11:00,45.1,44.6,30.43,NNE,24,10.0,16.0,98,0.00,,,0.01,Wunderground v.1.15,2013-12-24 20:11:00,
2013-12-24 12:17:00,44.7,43.9,30.43,North,360,13.0,16.0,97,0.00,,,0.01,Wunderground v.1.15,2013-12-24 20:17:00,
2013-12-24 12:22:00,44.7,43.9,30.43,North,355,13.0,15.0,97,0.00,,,0.01,Wunderground v.1.15,2013-12-24 20:22:00,
2013-12-24 12:28:00,44.7,43.9,30.42,North,360,12.0,15.0,97,0.00,,,0.01,Wunderground v.1.15,2013-12-24 20:28:00,
2013-12-24 12:34:00,44.7,43.9,30.42,North,355,12.0,13.0,97,0.00,,,0.01,Wunderground v.1.15,2013-12-24 20:34:00,
2013-12-24 12:40:00,44.9,44.1,30.42,North,5,12.0,13.0,97,0.00,,,0.01,Wunderground v.1.15,2013-12-24 20:40:00,
2013-12-24 12:46:00,44.9,44.1,30.42,North,355,12.0,13.0,97,0.00,,,0.01,Wunderground v.1.15,2013-12-24 20:46:00,
2013-12-24 12:52:00,44.9,44.1,30.41,North,355,12.0,15.0,97,0.00,,,0.01,Wunderground v.1.15,2013-12-24 20:52:00,
2013-12-24 12:57:00,44.9,44.1,30.41,North,360,12.0,16.0,97,0.00,,,0.01,Wunderground v.1.15,2013-12-24 20:57:00,
2013-12-24 13:03:00,44.8,44.0,30.41,North,360,13.0,16.0,97,0.00,,,0.01,Wunderground v.1.15,2013-12-24 21:03:00,
2013-12-24 13:08:00,44.9,44.1,30.41,North,355,13.0,16.0,97,0.00,,,0.01,Wunderground v.1.15,2013-12-24 21:08:00,
2013-12-24 13:14:00,45.0,44.2,30.41,NNW,344,13.0,16.0,97,0.00,,,0.01,Wunderground v.1.15,2013-12-24 21:14:00,
2013-12-24 13:20:00,45.1,44.3,30.41,North,355,13.0,14.0,97,0.00,,,0.01,Wunderground v.1.15,2013-12-24 21:20:00,
2013-12-24 13:26:00,45.1,44.0,30.41,North,355,13.0,16.0,96,0.00,,,0.01,Wunderground v.1.15,2013-12-24 21:26:00,
2013-12-24 13:32:00,45.2,44.1,30.41,North,355,13.0,13.0,96,0.00,,,0.01,Wunderground v.1.15,2013-12-24 21:32:00,
2013-12-24 13:37:00,45.3,44.2,30.41,North,360,12.0,13.0,96,0.00,,,0.01,Wunderground v.1.15,2013-12-24 21:37:00,
2013-12-24 13:43:00,45.2,44.1,30.41,NNE,13,13.0,15.0,96,0.00,,,0.01,Wunderground v.1.15,2013-12-24 21:43:00,
2013-12-24 13:48:00,45.3,44.2,30.40,North,355,13.0,15.0,96,0.00,,,0.01,Wunderground v.1.15,2013-12-24 21:48:00,
2013-12-24 13:54:00,45.4,44.3,30.40,North,355,12.0,15.0,96,0.00,,,0.01,Wunderground v.1.15,2013-12-24 21:54:00,
2013-12-24 14:00:00,45.4,44.3,30.40,North,5,12.0,13.0,96,0.00,,,0.01,Wunderground v.1.15,2013-12-24 22:00:00,
2013-12-24 14:06:00,45.5,44.4,30.40,North,360,13.0,15.0,96,0.00,,,0.01,Wunderground v.1.15,2013-12-24 22:06:00,
2013-12-24 14:12:00,45.4,44.3,30.40,North,360,13.0,14.0,96,0.00,,,0.01,Wunderground v.1.15,2013-12-24 22:12:00,
2013-12-24 14:17:00,45.4,44.3,30.40,North,355,14.0,17.0,96,0.00,,,0.01,Wunderground v.1.15,2013-12-24 22:17:00,
2013-12-24 14:23:00,45.4,44.3,30.40,NNW,343,14.0,17.0,96,0.00,,,0.01,Wunderground v.1.15,2013-12-24 22:23:00,
2013-12-24 14:29:00,45.4,44.3,30.40,North,5,14.0,17.0,96,0.00,,,0.01,Wunderground v.1.15,2013-12-24 22:29:00,
2013-12-24 14:35:00,45.4,44.1,30.40,North,360,14.0,16.0,95,0.00,,,0.01,Wunderground v.1.15,2013-12-24 22:35:00,
2013-12-24 14:41:00,45.4,44.1,30.39,North,349,14.0,15.0,95,0.00,,,0.01,Wunderground v.1.15,2013-12-24 22:41:00,
2013-12-24 14:47:00,45.4,44.1,30.39,North,355,14.0,16.0,95,0.00,,,0.01,Wunderground v.1.15,2013-12-24 22:47:00,
2013-12-24 14:53:00,45.4,44.1,30.39,North,355,14.0,17.0,95,0.00,,,0.01,Wunderground v.1.15,2013-12-24 22:53:00,
2013-12-24 14:59:00,45.4,44.1,30.39,North,355,15.0,18.0,95,0.00,,,0.01,Wunderground v.1.15,2013-12-24 22:59:00,
2013-12-24 15:04:00,45.4,44.1,30.39,NNW,342,15.0,17.0,95,0.00,,,0.01,Wunderground v.1.15,2013-12-24 23:04:00,
2013-12-24 15:10:00,45.5,44.2,30.39,North,355,14.0,14.0,95,0.00,,,0.01,Wunderground v.1.15,2013-12-24 23:10:00,
2013-12-24 15:16:00,45.5,44.2,30.39,North,360,13.0,15.0,95,0.00,,,0.01,Wunderground v.1.15,2013-12-24 23:16:00,
2013-12-24 15:22:00,45.5,44.2,30.39,North,360,13.0,13.0,95,0.00,,,0.01,Wunderground v.1.15,2013-12-24 23:22:00,
2013-12-24 15:28:00,45.5,44.2,30.39,North,355,11.0,14.0,95,0.00,,,0.01,Wunderground v.1.15,2013-12-24 23:28:00,
2013-12-24 15:34:00,45.4,44.1,30.39,North,360,11.0,12.0,95,0.00,,,0.01,Wunderground v.1.15,2013-12-24 23:34:00,
2013-12-24 15:40:00,45.4,44.1,30.39,NNW,344,9.0,11.0,95,0.00,,,0.01,Wunderground v.1.15,2013-12-24 23:40:00,
2013-12-24 15:46:00,45.4,44.1,30.39,NNE,13,9.0,12.0,95,0.00,,,0.01,Wunderground v.1.15,2013-12-24 23:46:00,
2013-12-24 15:52:00,45.3,44.0,30.39,NNW,344,8.0,14.0,95,0.00,,,0.01,Wunderground v.1.15,2013-12-24 23:52:00,
2013-12-24 15:58:00,45.2,43.9,30.40,North,360,8.0,14.0,95,0.00,,,0.01,Wunderground v.1.15,2013-12-24 23:58:00,
2013-12-24 16:04:00,45.0,43.7,30.39,North,360,8.0,10.0,95,0.00,,,0.01,Wunderground v.1.15,2013-12-25 00:04:00,
2013-12-24 16:10:00,44.9,43.8,30.39,North,349,8.0,9.0,96,0.00,,,0.01,Wunderground v.1.15,2013-12-25 00:10:00,
2013-12-24 16:15:00,44.8,43.7,30.40,NNW,344,8.0,9.0,96,0.00,,,0.01,Wunderground v.1.15,2013-12-25 00:15:00,
2013-12-24 16:21:00,44.7,43.6,30.39,North,355,6.0,7.0,96,0.00,,,0.01,Wunderground v.1.15,2013-12-25 00:21:00,
2013-12-24 16:27:00,44.7,43.6,30.40,North,5,5.0,7.0,96,0.00,,,0.01,Wunderground v.1.15,2013-12-25 00:27:00,
2013-12-24 16:33:00,44.6,43.5,30.39,North,355,6.0,6.0,96,0.00,,,0.01,Wunderground v.1.15,2013-12-25 00:33:00,
2013-12-24 16:38:00,44.5,43.4,30.39,NNE,29,5.0,6.0,96,0.00,,,0.01,Wunderground v.1.15,2013-12-25 00:38:00,
2013-12-24 16:43:00,44.5,43.4,30.39,East,79,5.0,8.0,96,0.00,,,0.01,Wunderground v.1.15,2013-12-25 00:43:00,
2013-12-24 16:49:00,44.1,43.0,30.39,NE,46,5.0,8.0,96,0.00,,,0.01,Wunderground v.1.15,2013-12-25 00:49:00,
2013-12-24 16:55:00,43.6,42.5,30.39,NE,54,4.0,8.0,96,0.00,,,0.01,Wunderground v.1.15,2013-12-25 00:55:00,
2013-12-24 17:01:00,43.4,42.3,30.39,NE,46,4.0,6.0,96,0.00,,,0.01,Wunderground v.1.15,2013-12-25 01:01:00,
2013-12-24 17:07:00,43.2,42.1,30.39,NE,39,5.0,6.0,96,0.00,,,0.01,Wunderground v.1.15,2013-12-25 01:07:00,
2013-12-24 17:13:00,43.0,41.9,30.39,NE,51,4.0,6.0,96,0.00,,,0.01,Wunderground v.1.15,2013-12-25 01:13:00,
2013-12-24 17:19:00,42.9,41.8,30.39,NE,36,4.0,6.0,96,0.00,,,0.01,Wunderground v.1.15,2013-12-25 01:19:00,
2013-12-24 17:25:00,42.7,41.6,30.39,NNE,33,4.0,7.0,96,0.00,,,0.01,Wunderground v.1.15,2013-12-25 01:25:00,
2013-12-24 17:30:00,42.5,41.4,30.39,NE,41,4.0,6.0,96,0.00,,,0.01,Wunderground v.1.15,2013-12-25 01:30:00,
2013-12-24 17:36:00,42.5,41.4,30.39,NNE,17,4.0,6.0,96,0.00,,,0.01,Wunderground v.1.15,2013-12-25 01:36:00,
2013-12-24 17:42:00,42.5,41.7,30.39,NNE,15,3.0,6.0,97,0.00,,,0.01,Wunderground v.1.15,2013-12-25 01:42:00,
2013-12-24 17:48:00,42.6,41.5,30.39,NE,42,4.0,6.0,96,0.00,,,0.01,Wunderground v.1.15,2013-12-25 01:48:00,
2013-12-24 17:54:00,42.5,41.4,30.39,NE,37,5.0,6.0,96,0.00,,,0.01,Wunderground v.1.15,2013-12-25 01:54:00,
2013-12-24 18:00:00,42.5,41.4,30.39,NE,54,4.0,6.0,96,0.00,,,0.01,Wunderground v.1.15,2013-12-25 02:00:00,
2013-12-24 18:06:00,42.4,41.6,30.39,NE,40,5.0,6.0,97,0.00,,,0.01,Wunderground v.1.15,2013-12-25 02:06:00,
2013-12-24 18:11:00,42.2,41.1,30.38,NE,44,5.0,6.0,96,0.00,,,0.01,Wunderground v.1.15,2013-12-25 02:11:00,
2013-12-24 18:17:00,41.8,40.7,30.38,NE,55,4.0,7.0,96,0.00,,,0.01,Wunderground v.1.15,2013-12-25 02:17:00,
2013-12-24 18:23:00,41.8,40.7,30.38,NE,53,4.0,6.0,96,0.00,,,0.01,Wunderground v.1.15,2013-12-25 02:23:00,
2013-12-24 18:29:00,41.8,40.7,30.39,NE,53,4.0,6.0,96,0.00,,,0.01,Wunderground v.1.15,2013-12-25 02:29:00,
2013-12-24 18:35:00,41.9,40.8,30.39,NE,36,4.0,6.0,96,0.00,,,0.01,Wunderground v.1.15,2013-12-25 02:35:00,
2013-12-24 18:41:00,41.9,40.8,30.39,NE,46,4.0,6.0,96,0.00,,,0.01,Wunderground v.1.15,2013-12-25 02:41:00,
2013-12-24 18:47:00,41.8,40.7,30.39,NE,45,4.0,6.0,96,0.00,,,0.01,Wunderground v.1.15,2013-12-25 02:47:00,
2013-12-24 18:52:00,41.6,40.5,30.39,NE,40,4.0,6.0,96,0.00,,,0.01,Wunderground v.1.15,2013-12-25 02:52:00,
2013-12-24 18:58:00,41.5,40.4,30.38,NE,44,4.0,6.0,96,0.00,,,0.01,Wunderground v.1.15,2013-12-25 02:58:00,
2013-12-24 19:04:00,41.4,40.3,30.38,NE,44,3.0,6.0,96,0.00,,,0.01,Wunderground v.1.15,2013-12-25 03:04:00,
2013-12-24 19:10:00,41.3,40.2,30.39,NE,44,4.0,4.0,96,0.00,,,0.01,Wunderground v.1.15,2013-12-25 03:10:00,
2013-12-24 19:16:00,41.1,40.0,30.39,NE,44,4.0,6.0,96,0.00,,,0.01,Wunderground v.1.15,2013-12-25 03:16:00,
2013-12-24 19:22:00,40.9,39.8,30.38,NE,46,4.0,7.0,96,0.00,,,0.01,Wunderground v.1.15,2013-12-25 03:22:00,
2013-12-24 19:28:00,40.8,39.7,30.38,NE,40,4.0,7.0,96,0.00,,,0.01,Wunderground v.1.15,2013-12-25 03:28:00,
2013-12-24 19:33:00,40.6,39.5,30.38,NE,42,4.0,6.0,96,0.00,,,0.01,Wunderground v.1.15,2013-12-25 03:33:00,
2013-12-24 19:38:00,40.5,39.4,30.38,NE,42,4.0,7.0,96,0.00,,,0.01,Wunderground v.1.15,2013-12-25 03:38:00,
2013-12-24 19:44:00,40.5,39.4,30.38,NNE,32,4.0,6.0,96,0.00,,,0.01,Wunderground v.1.15,2013-12-25 03:44:00,
2013-12-24 19:50:00,40.5,39.4,30.38,NE,38,4.0,4.0,96,0.00,,,0.01,Wunderground v.1.15,2013-12-25 03:50:00,
2013-12-24 19:55:00,40.2,39.2,30.38,NE,45,4.0,6.0,96,0.00,,,0.01,Wunderground v.1.15,2013-12-25 03:55:00,
2013-12-24 20:01:00,39.8,38.8,30.38,NE,46,4.0,6.0,96,0.00,,,0.01,Wunderground v.1.15,2013-12-25 04:01:00,
2013-12-24 20:07:00,39.6,38.6,30.38,NE,46,4.0,6.0,96,0.00,,,0.01,Wunderground v.1.15,2013-12-25 04:07:00,
2013-12-24 20:13:00,39.4,38.4,30.38,NE,37,4.0,6.0,96,0.00,,,0.01,Wunderground v.1.15,2013-12-25 04:13:00,
2013-12-24 20:19:00,39.3,38.3,30.38,NE,51,5.0,6.0,96,0.00,,,0.01,Wunderground v.1.15,2013-12-25 04:19:00,
2013-12-24 20:25:00,39.1,38.1,30.38,NE,48,5.0,6.0,96,0.00,,,0.01,Wunderground v.1.15,2013-12-25 04:25:00,
2013-12-24 20:31:00,39.0,38.0,30.37,NE,39,4.0,7.0,96,0.00,,,0.01,Wunderground v.1.15,2013-12-25 04:31:00,
2013-12-24 20:36:00,38.9,37.9,30.38,NE,46,4.0,7.0,96,0.00,,,0.01,Wunderground v.1.15,2013-12-25 04:36:00,
2013-12-24 20:42:00,38.9,37.9,30.38,NE,46,4.0,6.0,96,0.00,,,0.01,Wunderground v.1.15,2013-12-25 04:42:00,
2013-12-24 20:48:00,39.2,38.2,30.38,NE,46,4.0,6.0,96,0.00,,,0.01,Wunderground v.1.15,2013-12-25 04:48:00,
2013-12-24 20:54:00,38.9,37.9,30.37,NE,42,5.0,6.0,96,0.00,,,0.01,Wunderground v.1.15,2013-12-25 04:54:00,
2013-12-24 20:59:00,38.5,37.5,30.37,NE,45,4.0,6.0,96,0.00,,,0.01,Wunderground v.1.15,2013-12-25 04:59:00,
2013-12-24 21:01:00,38.5,37.5,30.37,NE,47,5.0,6.0,96,0.00,,,0.01,Wunderground v.1.15,2013-12-25 05:01:00,
2013-12-24 21:04:00,38.6,37.8,30.37,ENE,62,5.0,9.0,97,0.00,,,0.01,Wunderground v.1.15,2013-12-25 05:04:00,
2013-12-24 21:05:00,38.6,37.6,30.37,ENE,63,5.0,9.0,96,0.00,,,0.01,Wunderground v.1.15,2013-12-25 05:05:00,
2013-12-24 21:11:00,38.2,37.2,30.37,ENE,63,6.0,6.0,96,0.00,,,0.01,Wunderground v.1.15,2013-12-25 05:11:00,
2013-12-24 21:14:00,38.1,37.1,30.37,ENE,67,6.0,7.0,96,0.00,,,0.01,Wunderground v.1.15,2013-12-25 05:14:00,
2013-12-24 21:17:00,38.1,37.3,30.37,ENE,66,6.0,7.0,97,0.00,,,0.01,Wunderground v.1.15,2013-12-25 05:17:00,
2013-12-24 21:22:00,38.4,37.6,30.36,ENE,66,7.0,8.0,97,0.00,,,0.01,Wunderground v.1.15,2013-12-25 05:22:00,
2013-12-24 21:27:00,38.3,37.3,30.36,ENE,65,7.0,8.0,96,0.00,,,0.01,Wunderground v.1.15,2013-12-25 05:27:00,
2013-12-24 21:33:00,38.0,37.0,30.36,ENE,65,5.0,7.0,96,0.00,,,0.01,Wunderground v.1.15,2013-12-25 05:33:00,
2013-12-24 21:38:00,37.8,36.8,30.36,ENE,65,5.0,7.0,96,0.00,,,0.01,Wunderground v.1.15,2013-12-25 05:38:00,
2013-12-24 21:44:00,37.7,36.7,30.35,ENE,65,5.0,6.0,96,0.00,,,0.01,Wunderground v.1.15,2013-12-25 05:44:00,
2013-12-24 21:50:00,37.6,36.8,30.35,ENE,65,4.0,4.0,97,0.00,,,0.01,Wunderground v.1.15,2013-12-25 05:50:00,
2013-12-24 21:56:00,37.5,36.7,30.35,ENE,65,4.0,6.0,97,0.00,,,0.01,Wunderground v.1.15,2013-12-25 05:56:00,
2013-12-24 22:02:00,37.3,36.5,30.35,ENE,65,3.0,6.0,97,0.00,,,0.01,Wunderground v.1.15,2013-12-25 06:02:00,
2013-12-24 22:07:00,37.5,36.7,30.34,NE,55,3.0,8.0,97,0.00,,,0.01,Wunderground v.1.15,2013-12-25 06:07:00,
2013-12-24 22:13:00,37.4,36.6,30.35,NE,55,3.0,6.0,97,0.00,,,0.01,Wunderground v.1.15,2013-12-25 06:13:00,
2013-12-24 22:19:00,37.6,36.8,30.35,NE,51,3.0,6.0,97,0.00,,,0.01,Wunderground v.1.15,2013-12-25 06:19:00,
2013-12-24 22:25:00,38.3,37.5,30.35,NE,52,4.0,6.0,97,0.00,,,0.01,Wunderground v.1.15,2013-12-25 06:25:00,
2013-12-24 22:31:00,38.8,38.0,30.34,NE,41,5.0,6.0,97,0.00,,,0.01,Wunderground v.1.15,2013-12-25 06:31:00,
2013-12-24 22:37:00,38.9,38.1,30.34,NE,37,4.0,6.0,97,0.00,,,0.01,Wunderground v.1.15,2013-12-25 06:37:00,
2013-12-24 22:43:00,38.3,37.3,30.34,ENE,61,5.0,8.0,96,0.00,,,0.01,Wunderground v.1.15,2013-12-25 06:43:00,
2013-12-24 22:49:00,37.7,36.7,30.34,ENE,63,5.0,8.0,96,0.00,,,0.01,Wunderground v.1.15,2013-12-25 06:49:00,
2013-12-24 22:55:00,37.3,36.3,30.34,NE,51,4.0,6.0,96,0.00,,,0.01,Wunderground v.1.15,2013-12-25 06:55:00,
2013-12-24 23:01:00,37.3,36.3,30.34,NE,44,4.0,6.0,96,0.00,,,0.01,Wunderground v.1.15,2013-12-25 07:01:00,
2013-12-24 23:07:00,37.2,36.4,30.34,NE,51,5.0,6.0,97,0.00,,,0.01,Wunderground v.1.15,2013-12-25 07:07:00,
2013-12-24 23:13:00,37.2,36.4,30.34,NE,53,5.0,8.0,97,0.00,,,0.01,Wunderground v.1.15,2013-12-25 07:13:00,
2013-12-24 23:19:00,37.3,36.5,30.34,NNE,30,5.0,8.0,97,0.00,,,0.01,Wunderground v.1.15,2013-12-25 07:19:00,
2013-12-24 23:23:00,37.3,36.3,30.34,NE,56,5.0,8.0,96,0.00,,,0.01,Wunderground v.1.15,2013-12-25 07:23:00,
2013-12-24 23:29:00,37.1,36.1,30.34,NE,47,5.0,8.0,96,0.00,,,0.01,Wunderground v.1.15,2013-12-25 07:29:00,
2013-12-24 23:35:00,37.1,36.1,30.34,NE,46,5.0,6.0,96,0.00,,,0.01,Wunderground v.1.15,2013-12-25 07:35:00,
2013-12-24 23:41:00,37.1,36.3,30.34,ENE,59,6.0,6.0,97,0.00,,,0.01,Wunderground v.1.15,2013-12-25 07:41:00,
2013-12-24 23:47:00,36.9,36.1,30.34,ENE,62,7.0,10.0,97,0.00,,,0.01,Wunderground v.1.15,2013-12-25 07:47:00,
2013-12-24 23:52:00,36.7,35.7,30.33,ENE,63,6.0,7.0,96,0.00,,,0.01,Wunderground v.1.15,2013-12-25 07:52:00,
2013-12-24 23:58:00,36.7,35.7,30.33,ENE,63,5.0,7.0,96,0.00,,,0.01,Wunderground v.1.15,2013-12-25 07:58:00,